sensor_id;sensor_type;location;lat;lon;timestamp;P1;durP1;ratioP1;P2;durP2;ratioP2
37831;SDS011;23671;38.090;-122.570;2022-10-31T00:00:45;12.02;;;6.32;;
37831;SDS011;23671;38.090;-122.570;2022-10-31T00:03:13;11.80;;;6.78;;
37831;SDS011;23671;38.090;-122.570;2022-10-31T00:05:41;11.40;;;6.72;;
37831;SDS011;23671;38.090;-122.570;2022-10-31T00:08:12;10.45;;;6.32;;
37831;SDS011;23671;38.090;-122.570;2022-10-31T00:10:42;8.95;;;6.43;;
37831;SDS011;23671;38.090;-122.570;2022-10-31T00:13:11;9.90;;;6.37;;
37831;SDS011;23671;38.090;-122.570;2022-10-31T00:15:40;8.95;;;6.45;;
37831;SDS011;23671;38.090;-122.570;2022-10-31T00:18:08;9.85;;;6.32;;
37831;SDS011;23671;38.090;-122.570;2022-10-31T00:20:36;8.63;;;5.87;;
37831;SDS011;23671;38.090;-122.570;2022-10-31T00:23:04;8.82;;;6.25;;
37831;SDS011;23671;38.090;-122.570;2022-10-31T00:25:38;10.40;;;6.47;;
37831;SDS011;23671;38.090;-122.570;2022-10-31T00:28:06;9.52;;;6.15;;
37831;SDS011;23671;38.090;-122.570;2022-10-31T00:30:36;9.07;;;6.13;;
37831;SDS011;23671;38.090;-122.570;2022-10-31T00:33:03;8.45;;;5.97;;
37831;SDS011;23671;38.090;-122.570;2022-10-31T00:35:33;9.85;;;5.93;;
37831;SDS011;23671;38.090;-122.570;2022-10-31T00:38:03;10.55;;;6.28;;
37831;SDS011;23671;38.090;-122.570;2022-10-31T00:40:30;8.02;;;5.90;;
37831;SDS011;23671;38.090;-122.570;2022-10-31T00:42:57;10.32;;;6.82;;
37831;SDS011;23671;38.090;-122.570;2022-10-31T00:45:23;9.30;;;6.10;;
37831;SDS011;23671;38.090;-122.570;2022-10-31T00:47:50;7.60;;;5.75;;
37831;SDS011;23671;38.090;-122.570;2022-10-31T00:50:17;10.48;;;6.28;;
37831;SDS011;23671;38.090;-122.570;2022-10-31T00:52:44;8.52;;;5.57;;
37831;SDS011;23671;38.090;-122.570;2022-10-31T00:55:12;9.40;;;5.90;;
37831;SDS011;23671;38.090;-122.570;2022-10-31T00:57:39;8.82;;;6.03;;
37831;SDS011;23671;38.090;-122.570;2022-10-31T01:00:06;8.75;;;6.03;;
37831;SDS011;23671;38.090;-122.570;2022-10-31T01:02:36;8.98;;;5.70;;
37831;SDS011;23671;38.090;-122.570;2022-10-31T01:05:06;8.32;;;5.78;;
37831;SDS011;23671;38.090;-122.570;2022-10-31T01:07:36;9.05;;;6.35;;
37831;SDS011;23671;38.090;-122.570;2022-10-31T01:10:05;9.68;;;6.30;;
37831;SDS011;23671;38.090;-122.570;2022-10-31T01:12:36;9.45;;;5.68;;
37831;SDS011;23671;38.090;-122.570;2022-10-31T01:15:04;8.00;;;5.75;;
37831;SDS011;23671;38.090;-122.570;2022-10-31T01:17:32;8.43;;;5.60;;
37831;SDS011;23671;38.090;-122.570;2022-10-31T01:19:59;9.00;;;6.30;;
37831;SDS011;23671;38.090;-122.570;2022-10-31T01:22:26;8.38;;;6.18;;
37831;SDS011;23671;38.090;-122.570;2022-10-31T01:24:53;8.93;;;6.05;;
37831;SDS011;23671;38.090;-122.570;2022-10-31T01:27:20;10.52;;;6.38;;
37831;SDS011;23671;38.090;-122.570;2022-10-31T01:29:47;9.13;;;6.32;;
37831;SDS011;23671;38.090;-122.570;2022-10-31T01:32:17;9.60;;;5.90;;
37831;SDS011;23671;38.090;-122.570;2022-10-31T01:34:44;9.88;;;6.20;;
37831;SDS011;23671;38.090;-122.570;2022-10-31T01:37:10;8.23;;;5.57;;
37831;SDS011;23671;38.090;-122.570;2022-10-31T01:39:37;10.02;;;6.78;;
37831;SDS011;23671;38.090;-122.570;2022-10-31T01:42:04;9.73;;;6.05;;
37831;SDS011;23671;38.090;-122.570;2022-10-31T01:46:59;8.55;;;6.40;;
37831;SDS011;23671;38.090;-122.570;2022-10-31T01:49:52;10.10;;;6.40;;
37831;SDS011;23671;38.090;-122.570;2022-10-31T01:52:38;9.70;;;5.97;;
37831;SDS011;23671;38.090;-122.570;2022-10-31T01:55:16;10.77;;;6.20;;
37831;SDS011;23671;38.090;-122.570;2022-10-31T01:57:53;9.35;;;5.65;;
37831;SDS011;23671;38.090;-122.570;2022-10-31T02:00:23;11.05;;;6.93;;
37831;SDS011;23671;38.090;-122.570;2022-10-31T02:02:50;9.23;;;5.78;;
37831;SDS011;23671;38.090;-122.570;2022-10-31T02:05:22;9.35;;;5.97;;
37831;SDS011;23671;38.090;-122.570;2022-10-31T02:08:02;8.95;;;6.00;;
37831;SDS011;23671;38.090;-122.570;2022-10-31T02:10:49;9.07;;;5.45;;
37831;SDS011;23671;38.090;-122.570;2022-10-31T02:13:16;8.02;;;5.68;;
37831;SDS011;23671;38.090;-122.570;2022-10-31T02:15:45;9.00;;;5.97;;
37831;SDS011;23671;38.090;-122.570;2022-10-31T02:18:16;8.43;;;5.82;;
37831;SDS011;23671;38.090;-122.570;2022-10-31T02:21:07;9.90;;;6.10;;
37831;SDS011;23671;38.090;-122.570;2022-10-31T02:26:45;9.98;;;6.28;;
37831;SDS011;23671;38.090;-122.570;2022-10-31T02:29:22;8.48;;;5.90;;
37831;SDS011;23671;38.090;-122.570;2022-10-31T02:32:21;8.52;;;5.40;;
37831;SDS011;23671;38.090;-122.570;2022-10-31T02:34:57;8.70;;;6.03;;
37831;SDS011;23671;38.090;-122.570;2022-10-31T02:40:51;9.38;;;5.78;;
37831;SDS011;23671;38.090;-122.570;2022-10-31T02:46:14;9.95;;;6.28;;
37831;SDS011;23671;38.090;-122.570;2022-10-31T02:49:07;9.95;;;6.38;;
37831;SDS011;23671;38.090;-122.570;2022-10-31T02:51:43;9.10;;;6.15;;
37831;SDS011;23671;38.090;-122.570;2022-10-31T02:54:23;9.48;;;5.88;;
37831;SDS011;23671;38.090;-122.570;2022-10-31T02:56:56;9.18;;;5.82;;
37831;SDS011;23671;38.090;-122.570;2022-10-31T02:59:31;9.10;;;6.30;;
37831;SDS011;23671;38.090;-122.570;2022-10-31T03:10:37;10.23;;;6.60;;
37831;SDS011;23671;38.090;-122.570;2022-10-31T03:16:16;10.45;;;7.00;;
37831;SDS011;23671;38.090;-122.570;2022-10-31T03:19:08;9.07;;;6.13;;
37831;SDS011;23671;38.090;-122.570;2022-10-31T03:21:49;9.93;;;6.35;;
37831;SDS011;23671;38.090;-122.570;2022-10-31T03:24:29;11.32;;;6.72;;
37831;SDS011;23671;38.090;-122.570;2022-10-31T03:27:01;10.48;;;6.75;;
37831;SDS011;23671;38.090;-122.570;2022-10-31T03:29:34;9.85;;;6.45;;
37831;SDS011;23671;38.090;-122.570;2022-10-31T03:32:05;10.23;;;6.40;;
37831;SDS011;23671;38.090;-122.570;2022-10-31T03:34:39;10.93;;;6.75;;
37831;SDS011;23671;38.090;-122.570;2022-10-31T03:37:08;9.13;;;6.68;;
37831;SDS011;23671;38.090;-122.570;2022-10-31T03:39:40;11.52;;;7.32;;
37831;SDS011;23671;38.090;-122.570;2022-10-31T03:42:11;9.57;;;6.22;;
37831;SDS011;23671;38.090;-122.570;2022-10-31T03:44:55;7.97;;;5.70;;
37831;SDS011;23671;38.090;-122.570;2022-10-31T03:47:31;10.25;;;6.45;;
37831;SDS011;23671;38.090;-122.570;2022-10-31T03:50:00;10.73;;;6.50;;
37831;SDS011;23671;38.090;-122.570;2022-10-31T03:52:35;9.63;;;6.20;;
37831;SDS011;23671;38.090;-122.570;2022-10-31T03:58:29;10.98;;;6.15;;
37831;SDS011;23671;38.090;-122.570;2022-10-31T04:00:33;9.18;;;6.15;;
37831;SDS011;23671;38.090;-122.570;2022-10-31T04:03:11;10.15;;;6.35;;
37831;SDS011;23671;38.090;-122.570;2022-10-31T04:05:43;10.73;;;6.53;;
37831;SDS011;23671;38.090;-122.570;2022-10-31T04:08:18;11.07;;;6.25;;
37831;SDS011;23671;38.090;-122.570;2022-10-31T04:10:50;8.93;;;5.60;;
37831;SDS011;23671;38.090;-122.570;2022-10-31T04:13:20;8.88;;;5.93;;
37831;SDS011;23671;38.090;-122.570;2022-10-31T04:15:55;9.95;;;6.60;;
37831;SDS011;23671;38.090;-122.570;2022-10-31T04:18:23;9.25;;;6.18;;
37831;SDS011;23671;38.090;-122.570;2022-10-31T04:20:59;8.97;;;5.77;;
37831;SDS011;23671;38.090;-122.570;2022-10-31T04:23:27;10.82;;;6.43;;
37831;SDS011;23671;38.090;-122.570;2022-10-31T04:25:55;7.72;;;5.70;;
37831;SDS011;23671;38.090;-122.570;2022-10-31T04:28:22;9.18;;;6.25;;
37831;SDS011;23671;38.090;-122.570;2022-10-31T04:30:49;11.07;;;6.55;;
37831;SDS011;23671;38.090;-122.570;2022-10-31T04:33:20;9.10;;;6.07;;
37831;SDS011;23671;38.090;-122.570;2022-10-31T04:35:47;10.02;;;5.43;;
37831;SDS011;23671;38.090;-122.570;2022-10-31T04:38:14;7.72;;;5.57;;
37831;SDS011;23671;38.090;-122.570;2022-10-31T04:40:41;10.57;;;5.85;;
37831;SDS011;23671;38.090;-122.570;2022-10-31T04:43:08;9.75;;;6.40;;
37831;SDS011;23671;38.090;-122.570;2022-10-31T04:45:35;12.18;;;6.60;;
37831;SDS011;23671;38.090;-122.570;2022-10-31T04:48:02;9.15;;;5.55;;
37831;SDS011;23671;38.090;-122.570;2022-10-31T04:50:29;10.77;;;6.13;;
37831;SDS011;23671;38.090;-122.570;2022-10-31T04:52:56;9.88;;;6.20;;
37831;SDS011;23671;38.090;-122.570;2022-10-31T04:55:23;9.20;;;5.72;;
37831;SDS011;23671;38.090;-122.570;2022-10-31T04:57:50;8.57;;;6.03;;
37831;SDS011;23671;38.090;-122.570;2022-10-31T05:00:18;10.63;;;6.25;;
37831;SDS011;23671;38.090;-122.570;2022-10-31T05:05:14;9.57;;;5.40;;
37831;SDS011;23671;38.090;-122.570;2022-10-31T05:07:42;8.80;;;5.63;;
37831;SDS011;23671;38.090;-122.570;2022-10-31T05:10:11;9.30;;;5.73;;
37831;SDS011;23671;38.090;-122.570;2022-10-31T05:12:53;10.45;;;6.18;;
37831;SDS011;23671;38.090;-122.570;2022-10-31T05:15:22;7.78;;;5.43;;
37831;SDS011;23671;38.090;-122.570;2022-10-31T05:17:51;10.13;;;5.73;;
37831;SDS011;23671;38.090;-122.570;2022-10-31T05:20:19;8.50;;;5.60;;
37831;SDS011;23671;38.090;-122.570;2022-10-31T05:22:48;9.20;;;5.78;;
37831;SDS011;23671;38.090;-122.570;2022-10-31T05:25:18;9.30;;;5.43;;
37831;SDS011;23671;38.090;-122.570;2022-10-31T05:27:47;10.15;;;5.53;;
37831;SDS011;23671;38.090;-122.570;2022-10-31T05:30:17;11.73;;;5.85;;
37831;SDS011;23671;38.090;-122.570;2022-10-31T05:32:46;11.02;;;5.55;;
37831;SDS011;23671;38.090;-122.570;2022-10-31T05:35:15;9.35;;;5.47;;
37831;SDS011;23671;38.090;-122.570;2022-10-31T05:37:47;9.65;;;5.65;;
37831;SDS011;23671;38.090;-122.570;2022-10-31T05:40:17;9.30;;;5.85;;
37831;SDS011;23671;38.090;-122.570;2022-10-31T05:42:45;9.98;;;5.50;;
37831;SDS011;23671;38.090;-122.570;2022-10-31T05:45:14;9.60;;;5.63;;
37831;SDS011;23671;38.090;-122.570;2022-10-31T05:47:49;8.75;;;5.53;;
37831;SDS011;23671;38.090;-122.570;2022-10-31T05:50:24;12.52;;;6.32;;
37831;SDS011;23671;38.090;-122.570;2022-10-31T05:52:56;10.43;;;5.37;;
37831;SDS011;23671;38.090;-122.570;2022-10-31T05:55:28;7.85;;;5.50;;
37831;SDS011;23671;38.090;-122.570;2022-10-31T05:57:56;6.50;;;4.60;;
37831;SDS011;23671;38.090;-122.570;2022-10-31T06:00:24;11.82;;;5.80;;
37831;SDS011;23671;38.090;-122.570;2022-10-31T06:02:58;10.05;;;5.10;;
37831;SDS011;23671;38.090;-122.570;2022-10-31T06:05:26;8.60;;;5.45;;
37831;SDS011;23671;38.090;-122.570;2022-10-31T06:07:53;9.57;;;4.95;;
37831;SDS011;23671;38.090;-122.570;2022-10-31T06:10:21;10.07;;;5.18;;
37831;SDS011;23671;38.090;-122.570;2022-10-31T06:12:48;8.98;;;5.63;;
37831;SDS011;23671;38.090;-122.570;2022-10-31T06:15:15;8.10;;;5.30;;
37831;SDS011;23671;38.090;-122.570;2022-10-31T06:17:42;8.02;;;5.38;;
37831;SDS011;23671;38.090;-122.570;2022-10-31T06:20:09;8.57;;;5.60;;
37831;SDS011;23671;38.090;-122.570;2022-10-31T06:22:36;10.05;;;5.55;;
37831;SDS011;23671;38.090;-122.570;2022-10-31T06:25:03;10.20;;;5.30;;
37831;SDS011;23671;38.090;-122.570;2022-10-31T06:27:30;10.93;;;5.45;;
37831;SDS011;23671;38.090;-122.570;2022-10-31T06:29:57;7.72;;;4.70;;
37831;SDS011;23671;38.090;-122.570;2022-10-31T06:32:24;7.97;;;4.80;;
37831;SDS011;23671;38.090;-122.570;2022-10-31T06:34:51;7.32;;;4.43;;
37831;SDS011;23671;38.090;-122.570;2022-10-31T06:37:18;9.15;;;4.75;;
37831;SDS011;23671;38.090;-122.570;2022-10-31T06:39:45;9.68;;;5.15;;
37831;SDS011;23671;38.090;-122.570;2022-10-31T06:42:12;9.30;;;4.97;;
37831;SDS011;23671;38.090;-122.570;2022-10-31T06:44:40;7.70;;;4.90;;
37831;SDS011;23671;38.090;-122.570;2022-10-31T06:47:07;8.05;;;4.78;;
37831;SDS011;23671;38.090;-122.570;2022-10-31T06:49:34;8.18;;;4.93;;
37831;SDS011;23671;38.090;-122.570;2022-10-31T06:52:01;8.13;;;4.53;;
37831;SDS011;23671;38.090;-122.570;2022-10-31T06:54:28;8.02;;;4.95;;
37831;SDS011;23671;38.090;-122.570;2022-10-31T06:56:55;9.02;;;4.82;;
37831;SDS011;23671;38.090;-122.570;2022-10-31T06:59:22;8.43;;;4.65;;
37831;SDS011;23671;38.090;-122.570;2022-10-31T07:01:49;8.30;;;4.60;;
37831;SDS011;23671;38.090;-122.570;2022-10-31T07:04:16;8.00;;;4.78;;
37831;SDS011;23671;38.090;-122.570;2022-10-31T07:06:43;11.23;;;4.75;;
37831;SDS011;23671;38.090;-122.570;2022-10-31T07:09:10;6.75;;;4.70;;
37831;SDS011;23671;38.090;-122.570;2022-10-31T07:11:37;7.00;;;4.57;;
37831;SDS011;23671;38.090;-122.570;2022-10-31T07:14:04;9.93;;;5.00;;
37831;SDS011;23671;38.090;-122.570;2022-10-31T07:16:31;8.75;;;4.82;;
37831;SDS011;23671;38.090;-122.570;2022-10-31T07:18:58;8.07;;;4.38;;
37831;SDS011;23671;38.090;-122.570;2022-10-31T07:21:25;8.70;;;4.80;;
37831;SDS011;23671;38.090;-122.570;2022-10-31T07:23:52;6.45;;;4.28;;
37831;SDS011;23671;38.090;-122.570;2022-10-31T07:26:19;8.70;;;4.50;;
37831;SDS011;23671;38.090;-122.570;2022-10-31T07:28:46;7.38;;;4.32;;
37831;SDS011;23671;38.090;-122.570;2022-10-31T07:31:13;7.75;;;4.30;;
37831;SDS011;23671;38.090;-122.570;2022-10-31T07:33:40;9.18;;;4.22;;
37831;SDS011;23671;38.090;-122.570;2022-10-31T07:36:07;6.38;;;4.35;;
37831;SDS011;23671;38.090;-122.570;2022-10-31T07:38:34;7.07;;;4.38;;
37831;SDS011;23671;38.090;-122.570;2022-10-31T07:41:01;8.93;;;4.32;;
37831;SDS011;23671;38.090;-122.570;2022-10-31T07:43:28;6.45;;;4.25;;
37831;SDS011;23671;38.090;-122.570;2022-10-31T07:45:55;8.75;;;4.63;;
37831;SDS011;23671;38.090;-122.570;2022-10-31T07:48:22;8.10;;;4.50;;
37831;SDS011;23671;38.090;-122.570;2022-10-31T07:50:49;8.45;;;4.05;;
37831;SDS011;23671;38.090;-122.570;2022-10-31T07:53:16;7.72;;;4.15;;
37831;SDS011;23671;38.090;-122.570;2022-10-31T07:55:43;9.98;;;4.35;;
37831;SDS011;23671;38.090;-122.570;2022-10-31T07:58:13;8.75;;;4.70;;
37831;SDS011;23671;38.090;-122.570;2022-10-31T08:00:43;8.65;;;4.63;;
37831;SDS011;23671;38.090;-122.570;2022-10-31T08:03:12;7.40;;;4.10;;
37831;SDS011;23671;38.090;-122.570;2022-10-31T08:05:41;8.52;;;4.32;;
37831;SDS011;23671;38.090;-122.570;2022-10-31T08:08:11;6.93;;;4.18;;
37831;SDS011;23671;38.090;-122.570;2022-10-31T08:10:39;8.57;;;4.40;;
37831;SDS011;23671;38.090;-122.570;2022-10-31T08:13:08;8.30;;;3.92;;
37831;SDS011;23671;38.090;-122.570;2022-10-31T08:15:37;8.30;;;4.43;;
37831;SDS011;23671;38.090;-122.570;2022-10-31T08:18:07;7.78;;;4.18;;
37831;SDS011;23671;38.090;-122.570;2022-10-31T08:20:39;7.95;;;4.45;;
37831;SDS011;23671;38.090;-122.570;2022-10-31T08:23:09;8.80;;;4.32;;
37831;SDS011;23671;38.090;-122.570;2022-10-31T08:25:37;10.10;;;4.77;;
37831;SDS011;23671;38.090;-122.570;2022-10-31T08:28:05;7.13;;;4.07;;
37831;SDS011;23671;38.090;-122.570;2022-10-31T08:33:12;6.35;;;3.90;;
37831;SDS011;23671;38.090;-122.570;2022-10-31T08:35:41;6.93;;;3.80;;
37831;SDS011;23671;38.090;-122.570;2022-10-31T08:38:09;8.00;;;4.00;;
37831;SDS011;23671;38.090;-122.570;2022-10-31T08:40:38;8.50;;;4.83;;
37831;SDS011;23671;38.090;-122.570;2022-10-31T08:43:14;7.45;;;4.18;;
37831;SDS011;23671;38.090;-122.570;2022-10-31T08:45:43;7.80;;;4.20;;
37831;SDS011;23671;38.090;-122.570;2022-10-31T08:48:13;6.47;;;4.10;;
37831;SDS011;23671;38.090;-122.570;2022-10-31T08:50:42;6.87;;;3.70;;
37831;SDS011;23671;38.090;-122.570;2022-10-31T08:53:14;8.10;;;4.15;;
37831;SDS011;23671;38.090;-122.570;2022-10-31T08:55:42;7.80;;;4.00;;
37831;SDS011;23671;38.090;-122.570;2022-10-31T08:58:11;9.70;;;4.30;;
37831;SDS011;23671;38.090;-122.570;2022-10-31T09:00:41;7.45;;;4.30;;
37831;SDS011;23671;38.090;-122.570;2022-10-31T09:03:10;8.77;;;4.47;;
37831;SDS011;23671;38.090;-122.570;2022-10-31T09:05:39;6.80;;;4.10;;
37831;SDS011;23671;38.090;-122.570;2022-10-31T09:08:07;8.95;;;4.20;;
37831;SDS011;23671;38.090;-122.570;2022-10-31T09:10:35;8.68;;;4.30;;
37831;SDS011;23671;38.090;-122.570;2022-10-31T09:13:04;7.05;;;4.10;;
37831;SDS011;23671;38.090;-122.570;2022-10-31T09:15:33;6.35;;;4.13;;
37831;SDS011;23671;38.090;-122.570;2022-10-31T09:20:28;7.15;;;3.67;;
37831;SDS011;23671;38.090;-122.570;2022-10-31T09:22:57;6.77;;;4.17;;
37831;SDS011;23671;38.090;-122.570;2022-10-31T09:25:29;8.85;;;4.50;;
37831;SDS011;23671;38.090;-122.570;2022-10-31T09:27:58;7.07;;;3.95;;
37831;SDS011;23671;38.090;-122.570;2022-10-31T09:30:30;6.38;;;4.10;;
37831;SDS011;23671;38.090;-122.570;2022-10-31T09:32:59;7.55;;;3.97;;
37831;SDS011;23671;38.090;-122.570;2022-10-31T09:35:31;7.38;;;3.97;;
37831;SDS011;23671;38.090;-122.570;2022-10-31T09:38:02;6.72;;;4.13;;
37831;SDS011;23671;38.090;-122.570;2022-10-31T09:40:40;7.15;;;3.90;;
37831;SDS011;23671;38.090;-122.570;2022-10-31T09:51:25;6.53;;;4.18;;
37831;SDS011;23671;38.090;-122.570;2022-10-31T09:54:02;8.98;;;4.03;;
37831;SDS011;23671;38.090;-122.570;2022-10-31T09:56:36;8.13;;;4.50;;
37831;SDS011;23671;38.090;-122.570;2022-10-31T09:59:04;7.05;;;4.22;;
37831;SDS011;23671;38.090;-122.570;2022-10-31T10:01:51;9.77;;;4.38;;
37831;SDS011;23671;38.090;-122.570;2022-10-31T10:10:13;8.13;;;4.57;;
37831;SDS011;23671;38.090;-122.570;2022-10-31T10:13:05;7.70;;;4.20;;
37831;SDS011;23671;38.090;-122.570;2022-10-31T10:16:03;6.45;;;4.03;;
37831;SDS011;23671;38.090;-122.570;2022-10-31T10:21:19;10.20;;;4.70;;
37831;SDS011;23671;38.090;-122.570;2022-10-31T10:24:02;5.82;;;3.63;;
37831;SDS011;23671;38.090;-122.570;2022-10-31T10:26:47;5.47;;;3.60;;
37831;SDS011;23671;38.090;-122.570;2022-10-31T10:32:13;8.65;;;4.32;;
37831;SDS011;23671;38.090;-122.570;2022-10-31T10:34:59;6.63;;;3.80;;
37831;SDS011;23671;38.090;-122.570;2022-10-31T10:37:48;5.90;;;3.67;;
37831;SDS011;23671;38.090;-122.570;2022-10-31T10:40:24;7.22;;;4.05;;
37831;SDS011;23671;38.090;-122.570;2022-10-31T10:42:56;6.22;;;3.70;;
37831;SDS011;23671;38.090;-122.570;2022-10-31T10:45:52;7.65;;;3.75;;
37831;SDS011;23671;38.090;-122.570;2022-10-31T10:51:45;10.60;;;3.92;;
37831;SDS011;23671;38.090;-122.570;2022-10-31T10:59:33;7.05;;;4.13;;
37831;SDS011;23671;38.090;-122.570;2022-10-31T11:02:01;6.65;;;3.58;;
37831;SDS011;23671;38.090;-122.570;2022-10-31T11:04:35;7.60;;;3.72;;
37831;SDS011;23671;38.090;-122.570;2022-10-31T11:07:06;7.88;;;4.20;;
37831;SDS011;23671;38.090;-122.570;2022-10-31T11:09:37;7.05;;;4.30;;
37831;SDS011;23671;38.090;-122.570;2022-10-31T11:12:14;7.25;;;3.92;;
37831;SDS011;23671;38.090;-122.570;2022-10-31T11:14:47;8.57;;;4.00;;
37831;SDS011;23671;38.090;-122.570;2022-10-31T11:22:44;8.63;;;3.95;;
37831;SDS011;23671;38.090;-122.570;2022-10-31T11:27:59;7.20;;;4.05;;
37831;SDS011;23671;38.090;-122.570;2022-10-31T11:30:35;6.35;;;3.65;;
37831;SDS011;23671;38.090;-122.570;2022-10-31T11:33:32;5.30;;;3.42;;
37831;SDS011;23671;38.090;-122.570;2022-10-31T11:39:04;7.85;;;3.83;;
37831;SDS011;23671;38.090;-122.570;2022-10-31T11:41:40;7.38;;;3.60;;
37831;SDS011;23671;38.090;-122.570;2022-10-31T11:44:12;6.70;;;3.80;;
37831;SDS011;23671;38.090;-122.570;2022-10-31T11:46:52;9.63;;;3.80;;
37831;SDS011;23671;38.090;-122.570;2022-10-31T11:52:04;6.38;;;3.70;;
37831;SDS011;23671;38.090;-122.570;2022-10-31T11:55:01;8.60;;;3.80;;
37831;SDS011;23671;38.090;-122.570;2022-10-31T11:57:30;5.82;;;3.42;;
37831;SDS011;23671;38.090;-122.570;2022-10-31T12:00:00;5.63;;;3.13;;
37831;SDS011;23671;38.090;-122.570;2022-10-31T12:02:29;9.05;;;4.07;;
37831;SDS011;23671;38.090;-122.570;2022-10-31T12:05:04;8.15;;;3.65;;
37831;SDS011;23671;38.090;-122.570;2022-10-31T12:07:43;8.35;;;4.05;;
37831;SDS011;23671;38.090;-122.570;2022-10-31T12:10:10;7.65;;;3.88;;
37831;SDS011;23671;38.090;-122.570;2022-10-31T12:15:13;6.75;;;3.40;;
37831;SDS011;23671;38.090;-122.570;2022-10-31T12:20:56;6.57;;;3.88;;
37831;SDS011;23671;38.090;-122.570;2022-10-31T12:26:24;9.18;;;3.55;;
37831;SDS011;23671;38.090;-122.570;2022-10-31T12:29:07;7.53;;;3.55;;
37831;SDS011;23671;38.090;-122.570;2022-10-31T12:34:31;7.45;;;3.20;;
37831;SDS011;23671;38.090;-122.570;2022-10-31T12:43:16;8.10;;;3.72;;
37831;SDS011;23671;38.090;-122.570;2022-10-31T12:45:51;6.20;;;3.20;;
37831;SDS011;23671;38.090;-122.570;2022-10-31T12:48:30;7.10;;;3.67;;
37831;SDS011;23671;38.090;-122.570;2022-10-31T12:57:23;6.53;;;3.33;;
37831;SDS011;23671;38.090;-122.570;2022-10-31T13:00:03;7.60;;;3.53;;
37831;SDS011;23671;38.090;-122.570;2022-10-31T13:02:56;7.13;;;3.22;;
37831;SDS011;23671;38.090;-122.570;2022-10-31T13:05:40;8.13;;;3.40;;
37831;SDS011;23671;38.090;-122.570;2022-10-31T13:16:47;7.78;;;2.90;;
37831;SDS011;23671;38.090;-122.570;2022-10-31T13:19:28;8.98;;;3.47;;
37831;SDS011;23671;38.090;-122.570;2022-10-31T13:27:55;7.60;;;3.00;;
37831;SDS011;23671;38.090;-122.570;2022-10-31T13:30:29;8.02;;;3.88;;
37831;SDS011;23671;38.090;-122.570;2022-10-31T13:33:18;7.03;;;3.05;;
37831;SDS011;23671;38.090;-122.570;2022-10-31T13:41:45;8.15;;;3.22;;
37831;SDS011;23671;38.090;-122.570;2022-10-31T13:44:29;9.23;;;3.78;;
37831;SDS011;23671;38.090;-122.570;2022-10-31T13:47:02;8.20;;;3.58;;
37831;SDS011;23671;38.090;-122.570;2022-10-31T13:49:45;7.70;;;3.55;;
37831;SDS011;23671;38.090;-122.570;2022-10-31T13:54:45;6.70;;;3.27;;
37831;SDS011;23671;38.090;-122.570;2022-10-31T13:57:19;7.35;;;3.17;;
37831;SDS011;23671;38.090;-122.570;2022-10-31T13:59:53;6.82;;;2.83;;
37831;SDS011;23671;38.090;-122.570;2022-10-31T14:02:29;6.10;;;3.17;;
37831;SDS011;23671;38.090;-122.570;2022-10-31T14:05:21;7.07;;;3.33;;
37831;SDS011;23671;38.090;-122.570;2022-10-31T14:07:57;6.03;;;3.50;;
37831;SDS011;23671;38.090;-122.570;2022-10-31T14:12:54;8.00;;;3.30;;
37831;SDS011;23671;38.090;-122.570;2022-10-31T14:15:34;10.05;;;3.55;;
37831;SDS011;23671;38.090;-122.570;2022-10-31T14:18:04;9.68;;;3.58;;
37831;SDS011;23671;38.090;-122.570;2022-10-31T14:20:44;5.90;;;2.70;;
37831;SDS011;23671;38.090;-122.570;2022-10-31T14:23:12;8.18;;;3.13;;
37831;SDS011;23671;38.090;-122.570;2022-10-31T14:28:54;7.20;;;3.17;;
37831;SDS011;23671;38.090;-122.570;2022-10-31T14:45:28;6.43;;;2.83;;
37831;SDS011;23671;38.090;-122.570;2022-10-31T14:51:39;6.43;;;2.90;;
37831;SDS011;23671;38.090;-122.570;2022-10-31T14:54:13;7.85;;;3.15;;
37831;SDS011;23671;38.090;-122.570;2022-10-31T14:56:48;7.88;;;3.20;;
37831;SDS011;23671;38.090;-122.570;2022-10-31T14:59:20;6.63;;;3.00;;
37831;SDS011;23671;38.090;-122.570;2022-10-31T15:01:57;7.47;;;3.00;;
37831;SDS011;23671;38.090;-122.570;2022-10-31T15:04:34;6.65;;;2.95;;
37831;SDS011;23671;38.090;-122.570;2022-10-31T15:07:12;7.43;;;3.08;;
37831;SDS011;23671;38.090;-122.570;2022-10-31T15:09:44;5.45;;;2.95;;
37831;SDS011;23671;38.090;-122.570;2022-10-31T15:12:29;7.28;;;2.70;;
37831;SDS011;23671;38.090;-122.570;2022-10-31T15:15:10;8.30;;;3.22;;
37831;SDS011;23671;38.090;-122.570;2022-10-31T15:17:44;8.38;;;3.30;;
37831;SDS011;23671;38.090;-122.570;2022-10-31T15:20:18;7.00;;;2.85;;
37831;SDS011;23671;38.090;-122.570;2022-10-31T15:22:51;5.25;;;3.03;;
37831;SDS011;23671;38.090;-122.570;2022-10-31T15:25:23;6.10;;;3.10;;
37831;SDS011;23671;38.090;-122.570;2022-10-31T15:27:52;7.78;;;3.05;;
37831;SDS011;23671;38.090;-122.570;2022-10-31T15:30:21;6.85;;;3.25;;
37831;SDS011;23671;38.090;-122.570;2022-10-31T15:32:50;7.07;;;3.10;;
37831;SDS011;23671;38.090;-122.570;2022-10-31T15:35:22;7.72;;;2.90;;
37831;SDS011;23671;38.090;-122.570;2022-10-31T15:37:55;8.50;;;3.17;;
37831;SDS011;23671;38.090;-122.570;2022-10-31T15:42:52;5.38;;;2.67;;
37831;SDS011;23671;38.090;-122.570;2022-10-31T15:45:25;7.90;;;3.15;;
37831;SDS011;23671;38.090;-122.570;2022-10-31T15:52:57;6.65;;;3.20;;
37831;SDS011;23671;38.090;-122.570;2022-10-31T15:55:26;7.68;;;2.97;;
37831;SDS011;23671;38.090;-122.570;2022-10-31T15:57:59;8.20;;;3.10;;
37831;SDS011;23671;38.090;-122.570;2022-10-31T16:00:30;7.68;;;3.00;;
37831;SDS011;23671;38.090;-122.570;2022-10-31T16:10:51;9.18;;;3.47;;
37831;SDS011;23671;38.090;-122.570;2022-10-31T16:13:20;10.07;;;3.47;;
37831;SDS011;23671;38.090;-122.570;2022-10-31T16:16:40;6.72;;;2.92;;
37831;SDS011;23671;38.090;-122.570;2022-10-31T16:18:45;8.32;;;3.00;;
37831;SDS011;23671;38.090;-122.570;2022-10-31T16:21:14;6.40;;;3.10;;
37831;SDS011;23671;38.090;-122.570;2022-10-31T16:23:48;8.50;;;2.78;;
37831;SDS011;23671;38.090;-122.570;2022-10-31T16:26:21;7.55;;;2.97;;
37831;SDS011;23671;38.090;-122.570;2022-10-31T16:28:55;9.80;;;3.20;;
37831;SDS011;23671;38.090;-122.570;2022-10-31T16:31:37;6.38;;;2.75;;
37831;SDS011;23671;38.090;-122.570;2022-10-31T16:34:10;8.73;;;3.20;;
37831;SDS011;23671;38.090;-122.570;2022-10-31T16:36:40;7.07;;;3.15;;
37831;SDS011;23671;38.090;-122.570;2022-10-31T16:39:08;9.93;;;3.13;;
37831;SDS011;23671;38.090;-122.570;2022-10-31T16:41:38;5.70;;;2.80;;
37831;SDS011;23671;38.090;-122.570;2022-10-31T16:44:21;6.80;;;3.25;;
37831;SDS011;23671;38.090;-122.570;2022-10-31T16:49:38;8.40;;;2.88;;
37831;SDS011;23671;38.090;-122.570;2022-10-31T16:52:05;9.10;;;3.00;;
37831;SDS011;23671;38.090;-122.570;2022-10-31T16:54:32;6.60;;;2.72;;
37831;SDS011;23671;38.090;-122.570;2022-10-31T16:56:59;11.10;;;3.13;;
37831;SDS011;23671;38.090;-122.570;2022-10-31T16:59:28;7.10;;;2.80;;
37831;SDS011;23671;38.090;-122.570;2022-10-31T17:01:58;8.48;;;3.28;;
37831;SDS011;23671;38.090;-122.570;2022-10-31T17:04:27;5.80;;;3.17;;
37831;SDS011;23671;38.090;-122.570;2022-10-31T17:06:54;6.90;;;3.22;;
37831;SDS011;23671;38.090;-122.570;2022-10-31T17:09:21;11.50;;;3.35;;
37831;SDS011;23671;38.090;-122.570;2022-10-31T17:11:48;8.40;;;2.95;;
37831;SDS011;23671;38.090;-122.570;2022-10-31T17:14:17;7.50;;;3.03;;
37831;SDS011;23671;38.090;-122.570;2022-10-31T17:16:44;9.68;;;3.42;;